Flight Track Log - Related Links

Times and Time Zones

All times are in EDT time to prevent confusion due to time zone crossing. See the AAY846 flight status page for this flight to view local times or setup timezone preferences in your user account.

Time Position Orientation Groundspeed Altitude Reporting Facility
EDT Latitude Longitude Course Direction KTS MPH feet Rate Location/Type
Fri 08:59:50 AM 27.9333 -82.7000 16° North 159 183 900  Level Tampa TRACON
Fri 09:00:44 AM 27.9833 -82.6833 16° North 217 250 2,000 1,882 Climbing Tampa TRACON
Fri 09:01:32 AM 28.0333 -82.6500 30° Northeast 272 313 4,100 2,222 Climbing Tampa TRACON
Fri 09:02:32 AM 28.1000 -82.6500 360° North 275 316 6,000 1,105 Climbing Tampa TRACON
Fri 09:04:42 AM 28.2625 -82.6664 355° North 276 318 7,600 1,263 Climbing Jacksonville Center
Fri 09:05:42 AM 28.3417 -82.6686 359° North 276 318 10,000 2,400 Climbing Jacksonville Center
Fri 09:06:42 AM 28.4253 -82.6753 356° North 282 325 12,400 2,250 Climbing Jacksonville Center
Fri 09:07:42 AM 28.5067 -82.7058 342° North 293 337 14,500 1,550 Climbing Jacksonville Center
Fri 09:08:42 AM 28.5964 -82.7411 341° North 316 364 15,500 1,250 Climbing Jacksonville Center
Fri 09:09:42 AM 28.6717 -82.7883 331° Northwest 343 395 17,000 1,550 Climbing Jacksonville Center
Fri 09:10:42 AM 28.7781 -82.8475 334° Northwest 370 426 18,600 1,850 Climbing Jacksonville Center
Fri 09:11:42 AM 28.8761 -82.9069 332° Northwest 387 445 20,700 1,750 Climbing Jacksonville Center
Fri 09:12:42 AM 28.9806 -82.9614 335° Northwest 398 458 22,100 1,400 Climbing Jacksonville Center
Fri 09:13:42 AM 29.0869 -83.0186 335° Northwest 410 472 23,500 1,800 Climbing Jacksonville Center
Fri 09:14:42 AM 29.1953 -83.0758 335° Northwest 416 479 25,700 1,800 Climbing Jacksonville Center
Fri 09:15:42 AM 29.2956 -83.1378 332° Northwest 416 479 27,100 1,450 Climbing Jacksonville Center
Fri 09:16:42 AM 29.3767 -83.2239 317° Northwest 411 473 28,600 1,550 Climbing Jacksonville Center
Fri 09:17:42 AM 29.4747 -83.3078 323° Northwest 405 466 30,200 1,200 Climbing Jacksonville Center
Fri 09:18:42 AM 29.5558 -83.3867 320° Northwest 400 460 31,000 850 Climbing Jacksonville Center
Fri 09:19:42 AM 29.6367 -83.4683 319° Northwest 390 449 31,900 500 Climbing Jacksonville Center
Fri 09:20:42 AM 29.7408 -83.5217 336° Northwest 390 449 32,000 50 Climbing Jacksonville Center
Fri 09:21:42 AM 29.8431 -83.5750 336° Northwest 390 449 32,000  Level Jacksonville Center
Fri 09:22:42 AM 29.9472 -83.6214 339° North 390 449 32,000  Level Jacksonville Center
Fri 09:23:42 AM 30.0511 -83.6700 338° Northwest 396 456 32,000  Level Jacksonville Center
Fri 09:24:42 AM 30.1572 -83.7214 337° Northwest 401 461 32,000  Level Jacksonville Center
Fri 09:25:42 AM 30.2594 -83.7703 338° Northwest 401 461 32,000  Level Jacksonville Center
Fri 09:26:42 AM 30.3614 -83.8194 337° Northwest 395 455 32,000  Level Jacksonville Center
Fri 09:27:42 AM 30.4653 -83.8664 339° North 395 455 32,000  Level Jacksonville Center
Fri 09:28:42 AM 30.5528 -83.9081 338° Northwest 395 455 32,000  Level Jacksonville Center
Fri 09:29:42 AM 30.6567 -83.9575 338° Northwest 395 455 32,000  Level Jacksonville Center
Fri 09:30:42 AM 30.7586 -84.0094 336° Northwest 395 455 32,000  Level Jacksonville Center
Fri 09:31:42 AM 30.8603 -84.0592 337° Northwest 395 455 32,000  Level Jacksonville Center
Fri 09:32:42 AM 30.9706 -84.1114 338° Northwest 395 455 32,000  Level Jacksonville Center
Fri 09:33:42 AM 31.0767 -84.1611 338° Northwest 395 455 32,000  Level Jacksonville Center
Fri 09:34:42 AM 31.1783 -84.2136 336° Northwest 395 455 32,000  Level Jacksonville Center
Fri 09:35:42 AM 31.2803 -84.2611 338° Northwest 395 455 32,000  Level Jacksonville Center
Fri 09:36:42 AM 31.3797 -84.3114 337° Northwest 395 455 32,000  Level Jacksonville Center
Fri 09:38:22 AM 31.5375 -84.3897 337° Northwest 409 471 32,000  Level Atlanta Center
Fri 09:39:22 AM 31.6417 -84.4364 339° North 409 471 32,000  Level Atlanta Center
Fri 09:40:22 AM 31.7417 -84.4881 336° Northwest 399 459 32,000  Level Atlanta Center
Fri 09:41:22 AM 31.8436 -84.5353 339° North 399 459 32,000  Level Atlanta Center
Fri 09:42:22 AM 31.9436 -84.5872 336° Northwest 393 452 32,000  Level Atlanta Center
Fri 09:43:22 AM 32.0561 -84.6392 339° North 393 452 32,000  Level Atlanta Center
Fri 09:44:22 AM 32.1539 -84.6939 335° Northwest 393 452 32,000  Level Atlanta Center
Fri 09:45:22 AM 32.2561 -84.7414 339° North 393 452 32,000  Level Atlanta Center
Fri 09:46:22 AM 32.3581 -84.7914 337° Northwest 393 452 32,000  Level Atlanta Center
Fri 09:47:22 AM 32.4578 -84.8364 339° North 393 452 32,000  Level Atlanta Center
Fri 09:48:22 AM 32.5597 -84.8892 336° Northwest 388 447 32,000  Level Atlanta Center
Fri 09:49:22 AM 32.6617 -84.9369 338° Northwest 388 447 32,000  Level Atlanta Center
Fri 09:50:22 AM 32.7636 -84.9947 335° Northwest 383 441 32,000  Level Atlanta Center
Fri 09:51:22 AM 32.8592 -85.0453 336° Northwest 389 448 32,000  Level Atlanta Center
Fri 09:52:22 AM 32.9569 -85.0983 336° Northwest 389 448 32,000  Level Atlanta Center
Fri 09:53:22 AM 33.0567 -85.1442 339° North 383 441 32,000  Level Atlanta Center
Fri 09:54:22 AM 33.1439 -85.1900 336° Northwest 383 441 32,000  Level Atlanta Center
Fri 09:55:22 AM 33.2458 -85.2386 338° Northwest 378 435 32,000  Level Atlanta Center
Fri 09:56:22 AM 33.3411 -85.2894 336° Northwest 378 435 32,000  Level Atlanta Center
Fri 09:57:22 AM 33.4408 -85.3383 338° Northwest 378 435 32,000 50 Level Atlanta Center
Fri 09:58:22 AM 33.5344 -85.3869 337° Northwest 371 427 32,100 350 Climbing Atlanta Center
Fri 09:59:22 AM 33.6422 -85.4411 337° Northwest 371 427 32,700 600 Climbing Atlanta Center
Fri 10:00:22 AM 33.7439 -85.4903 338° Northwest 381 438 33,300 650 Climbing Atlanta Center
Fri 10:01:22 AM 33.8456 -85.5394 338° Northwest 381 438 34,000 350 Climbing Atlanta Center
Fri 10:02:22 AM 33.9411 -85.5889 337° Northwest 381 438 34,000  Level Atlanta Center
Fri 10:03:22 AM 34.0344 -85.6406 335° Northwest 373 429 34,000  Level Atlanta Center
Fri 10:04:22 AM 34.1358 -85.6878 339° North 378 435 34,000  Level Atlanta Center
Fri 10:05:22 AM 34.2292 -85.7422 334° Northwest 378 435 34,000  Level Atlanta Center
Fri 10:06:22 AM 34.3203 -85.7842 339° North 378 435 34,000  Level Atlanta Center
Fri 10:07:22 AM 34.4114 -85.8339 336° Northwest 373 429 34,000  Level Atlanta Center
Fri 10:08:22 AM 34.5108 -85.8814 339° North 368 423 34,000  Level Atlanta Center
Fri 10:09:22 AM 34.6061 -85.9367 334° Northwest 375 432 34,000  Level Atlanta Center
Fri 10:10:22 AM 34.7200 -85.9897 339° North 382 440 34,000  Level Atlanta Center
Fri 10:11:22 AM 34.8153 -86.0450 335° Northwest 382 440 34,000  Level Atlanta Center
Fri 10:12:22 AM 34.8939 -86.0825 339° North 377 434 34,000  Level Atlanta Center
Fri 10:13:22 AM 35.0075 -86.1486 335° Northwest 377 434 34,000  Level Atlanta Center
Fri 10:14:22 AM 35.1069 -86.1942 339° North 377 434 34,000  Level Atlanta Center
Fri 10:16:37 AM 35.3131 -86.3053 336° Northwest 383 441 34,000  Level Memphis Center
Fri 10:17:39 AM 35.4114 -86.3619 335° Northwest 384 442 34,000  Level Memphis Center
Fri 10:18:41 AM 35.5297 -86.4197 338° Northwest 385 443 34,000  Level Memphis Center
Fri 10:19:43 AM 35.6278 -86.4778 334° Northwest 386 444 34,000  Level Memphis Center
Fri 10:20:45 AM 35.7292 -86.5303 337° Northwest 387 445 34,000  Level Memphis Center
Fri 10:21:47 AM 35.8286 -86.5858 336° Northwest 388 447 34,000  Level Memphis Center
Fri 10:22:49 AM 35.9278 -86.6364 338° Northwest 386 444 34,000  Level Memphis Center
Fri 10:23:51 AM 36.0253 -86.6936 335° Northwest 386 444 34,000  Level Memphis Center
Fri 10:24:53 AM 36.1242 -86.7450 337° Northwest 383 441 34,000  Level Memphis Center
Fri 10:25:56 AM 36.2389 -86.8114 335° Northwest 384 442 34,000  Level Memphis Center
Fri 10:26:58 AM 36.3358 -86.8656 336° Northwest 379 436 34,000  Level Memphis Center
Fri 10:28:00 AM 36.4372 -86.9208 336° Northwest 383 441 34,000  Level Memphis Center
Fri 10:29:02 AM 36.5472 -86.9769 338° Northwest 394 453 34,000  Level Memphis Center
Fri 10:30:04 AM 36.6458 -87.0358 334° Northwest 393 452 34,000  Level Memphis Center
Fri 10:31:06 AM 36.7478 -87.0894 337° Northwest 393 452 34,000  Level Memphis Center
Fri 10:32:08 AM 36.8472 -87.1472 335° Northwest 393 452 34,000  Level Memphis Center
Fri 10:33:10 AM 36.9486 -87.2042 336° Northwest 393 452 34,000  Level Memphis Center
Fri 10:34:12 AM 37.0494 -87.2606 336° Northwest 395 455 34,000  Level Memphis Center
Fri 10:35:02 AM 37.1342 -87.3106 335° Northwest 393 452 34,000  Level Indianapolis Center
Fri 10:36:04 AM 37.2367 -87.3661 337° Northwest 398 458 34,000  Level Indianapolis Center
Fri 10:37:06 AM 37.3358 -87.4261 334° Northwest 394 453 34,000  Level Indianapolis Center
Fri 10:38:08 AM 37.4558 -87.4917 337° Northwest 396 456 34,000  Level Indianapolis Center
Fri 10:39:10 AM 37.5572 -87.5500 335° Northwest 396 456 34,000  Level Indianapolis Center
Fri 10:40:12 AM 37.6589 -87.6075 336° Northwest 397 457 34,000  Level Indianapolis Center
Fri 10:41:14 AM 37.7583 -87.6661 335° Northwest 393 452 34,000  Level Indianapolis Center
Fri 10:42:16 AM 37.8561 -87.7194 337° Northwest 397 457 34,000  Level Indianapolis Center
Fri 10:43:18 AM 37.9536 -87.7792 334° Northwest 391 450 34,000  Level Indianapolis Center
Fri 10:44:20 AM 38.0547 -87.8367 336° Northwest 391 450 34,000  Level Indianapolis Center
Fri 10:45:22 AM 38.1728 -87.9089 334° Northwest 391 450 34,000  Level Indianapolis Center
Fri 10:46:24 AM 38.2756 -87.9686 335° Northwest 398 458 34,000  Level Indianapolis Center
Fri 10:47:25 AM 38.3761 -88.0300 334° Northwest 398 458 34,000  Level Indianapolis Center
Fri 10:48:27 AM 38.4778 -88.0886 336° Northwest 398 458 34,000  Level Indianapolis Center
Fri 10:49:25 AM 38.5761 -88.1483 335° Northwest 394 453 34,000  Level Kansas City Center
Fri 10:50:31 AM 38.6789 -88.2092 335° Northwest 395 455 34,000  Level Indianapolis Center
Fri 10:51:29 AM 38.7800 -88.2700 335° Northwest 398 458 34,000  Level Kansas City Center
Fri 10:52:31 AM 38.8817 -88.3342 334° Northwest 401 461 34,000 -194 Level Kansas City Center
Fri 10:53:33 AM 38.9842 -88.3928 336° Northwest 402 463 33,600 -629 Descending Kansas City Center
Fri 10:54:35 AM 39.0858 -88.4567 334° Northwest 403 464 32,700 -1,161 Descending Kansas City Center
Fri 10:55:37 AM 39.1872 -88.5158 336° Northwest 402 463 31,200 -1,597 Descending Kansas City Center
Fri 10:56:39 AM 39.3086 -88.5956 333° Northwest 403 464 29,400 -1,548 Descending Kansas City Center
Fri 10:57:41 AM 39.4072 -88.6508 337° Northwest 415 478 28,000 -1,403 Descending Kansas City Center
Fri 10:58:43 AM 39.5092 -88.7153 334° Northwest 414 476 26,500 -1,694 Descending Kansas City Center
Fri 10:59:45 AM 39.6075 -88.7742 335° Northwest 395 455 24,500 -2,081 Descending Kansas City Center
Fri 11:00:47 AM 39.7228 -88.8494 333° Northwest 387 445 22,200 -2,129 Descending Kansas City Center
Fri 11:01:49 AM 39.8081 -88.9225 327° Northwest 371 427 20,100 -1,920 Descending Kansas City Center
Fri 11:02:52 AM 39.8903 -88.9933 327° Northwest 360 414 18,200 -1,968 Descending Kansas City Center
Fri 11:03:54 AM 39.9664 -89.0611 326° Northwest 340 391 16,000 -2,032 Descending Kansas City Center
Fri 11:04:56 AM 40.0425 -89.1289 326° Northwest 331 381 14,000 -1,839 Descending Kansas City Center
Fri 11:05:58 AM 40.1183 -89.1989 325° Northwest 333 383 12,200 -1,597 Descending Kansas City Center
Fri 11:07:00 AM 40.1944 -89.2658 326° Northwest 331 381 10,700 -1,258 Descending Kansas City Center
Fri 11:08:02 AM 40.2933 -89.3006 345° North 307 353 9,600 -1,258 Descending Kansas City Center
Fri 11:09:04 AM 40.3644 -89.3331 341° North 281 323 8,100 -1,403 Descending Kansas City Center
Fri 11:10:06 AM 40.4358 -89.3644 341° North 275 316 6,700 -1,355 Descending Kansas City Center
Fri 11:11:08 AM 40.5008 -89.4147 330° Northwest 268 308 5,300 -1,210 Descending Kansas City Center
Fri 11:12:10 AM 40.5636 -89.4547 334° Northwest 259 298 4,200 -992 Descending Kansas City Center
Fri 11:13:21 AM 40.6378 -89.4792 346° North 239 275 3,100 -496 Descending Chicago Center
Fri 11:14:23 AM 40.6867 -89.5053 338° Northwest 217 250 3,100 -244 Level Chicago Center
Fri 11:15:24 AM 40.7256 -89.5611 313° West 187 215 2,600 -439 Descending Chicago Center
Fri 11:16:26 AM 40.7250 -89.6114 269° West 155 178 2,200 -532 Descending Chicago Center
Fri 11:17:28 AM 40.7028 -89.6425 227° Southwest 131 151 1,500 -677 Descending Chicago Center
Fri 11:18:30 AM 40.6764 -89.6700 218° Southwest 123 142 800 -339 Descending Chicago Center
Fri 11:19:32 AM 40.6506 -89.6967 218° Southwest 123 142 800  Level Chicago Center

Login

Don't have an account? Register now (free) for customized features, flight alerts, and more!